createdAt,value
2024-05-09T00:00:38.000Z,0
2024-05-09T00:01:54.000Z,0
2024-05-09T00:03:10.599Z,0
2024-05-09T00:04:26.000Z,0
2024-05-09T00:05:25.002Z,0
2024-05-09T00:06:59.000Z,0
2024-05-09T00:07:57.390Z,0
2024-05-09T00:09:31.570Z,0
2024-05-09T00:10:46.793Z,0
2024-05-09T00:12:03.000Z,0
2024-05-09T00:13:19.168Z,0
2024-05-09T00:14:35.000Z,0
2024-05-09T00:15:51.561Z,0
2024-05-09T00:17:07.742Z,0
2024-05-09T00:18:23.000Z,0
2024-05-09T00:19:40.000Z,0
2024-05-09T00:20:56.327Z,0
2024-05-09T00:22:12.000Z,0
2024-05-09T00:23:28.000Z,0
2024-05-09T00:24:44.914Z,0
2024-05-09T00:26:01.000Z,0
2024-05-09T00:27:17.309Z,0
2024-05-09T00:28:33.485Z,0
2024-05-09T00:29:49.000Z,0
2024-05-09T00:31:05.888Z,0
2024-05-09T00:32:21.094Z,0
2024-05-09T00:33:37.000Z,0
2024-05-09T00:34:53.486Z,0
2024-05-09T00:36:09.680Z,0
2024-05-09T00:37:25.858Z,0
2024-05-09T00:38:42.064Z,0
2024-05-09T00:39:58.000Z,0
2024-05-09T00:41:14.000Z,0
2024-05-09T00:42:30.000Z,0
2024-05-09T00:43:28.842Z,0
2024-05-09T00:45:03.016Z,0
2024-05-09T00:46:01.229Z,0
2024-05-09T00:47:35.404Z,0
2024-05-09T00:48:50.000Z,0
2024-05-09T00:50:06.000Z,0
2024-05-09T00:51:23.000Z,0
2024-05-09T00:52:39.000Z,0
2024-05-09T00:53:55.393Z,0
2024-05-09T00:55:11.000Z,0
2024-05-09T00:57:03.000Z,0
2024-05-09T00:57:44.000Z,0
2024-05-09T00:58:42.180Z,0
2024-05-09T01:00:16.000Z,0
2024-05-09T01:01:32.000Z,0
2024-05-09T01:02:48.000Z,0
2024-05-09T01:04:04.954Z,0
2024-05-09T01:05:21.135Z,0
2024-05-09T01:06:36.338Z,0
2024-05-09T01:07:52.540Z,0
2024-05-09T01:08:50.743Z,0
2024-05-09T01:10:24.000Z,0
2024-05-09T01:11:23.130Z,0
2024-05-09T01:12:57.000Z,0
2024-05-09T01:14:13.000Z,0
2024-05-09T01:15:29.000Z,0
2024-05-09T01:16:27.905Z,0
2024-05-09T01:18:02.000Z,0
2024-05-09T01:19:18.000Z,0
2024-05-09T01:20:34.476Z,0
2024-05-09T01:21:50.675Z,0
2024-05-09T01:23:05.000Z,0
2024-05-09T01:24:22.063Z,0
2024-05-09T01:25:38.254Z,0
2024-05-09T01:26:54.000Z,0
2024-05-09T01:28:10.000Z,0
2024-05-09T01:29:26.848Z,0
2024-05-09T01:30:43.000Z,0
2024-05-09T01:31:59.225Z,0
2024-05-09T01:33:15.424Z,0
2024-05-09T01:34:31.000Z,0
2024-05-09T01:35:47.000Z,0
2024-05-09T01:36:46.012Z,0
2024-05-09T01:38:20.000Z,0
2024-05-09T01:39:36.000Z,0
2024-05-09T01:40:52.586Z,0
2024-05-09T01:42:07.804Z,0
2024-05-09T01:43:23.999Z,0
2024-05-09T01:44:40.000Z,0
2024-05-09T01:45:56.000Z,0
2024-05-09T01:46:54.580Z,0
2024-05-09T01:48:28.762Z,0
2024-05-09T01:49:44.957Z,0
2024-05-09T01:51:01.000Z,0
2024-05-09T01:52:17.000Z,0
2024-05-09T01:53:33.000Z,0
2024-05-09T01:54:49.000Z,0
2024-05-09T01:56:05.920Z,0
2024-05-09T01:57:22.118Z,0
2024-05-09T01:58:37.335Z,0
2024-05-09T01:59:53.523Z,0
2024-05-09T02:01:09.719Z,0
2024-05-09T02:02:07.914Z,0
2024-05-09T02:03:42.000Z,0
2024-05-09T02:04:58.000Z,0
2024-05-09T02:06:14.000Z,0
2024-05-09T02:07:12.687Z,0
2024-05-09T02:08:46.880Z,0
2024-05-09T02:09:45.073Z,0
2024-05-09T02:11:19.266Z,0
2024-05-09T02:12:35.441Z,0
2024-05-09T02:13:51.647Z,0
2024-05-09T02:14:49.846Z,0
2024-05-09T02:16:23.000Z,0
2024-05-09T02:17:39.000Z,0
2024-05-09T02:18:55.000Z,0
2024-05-09T02:19:53.636Z,0
2024-05-09T02:21:27.000Z,0
2024-05-09T02:22:44.006Z,0
2024-05-09T02:24:00.197Z,0
2024-05-09T02:24:58.408Z,0
2024-05-09T02:26:32.000Z,0
2024-05-09T02:27:30.795Z,0
2024-05-09T02:29:04.985Z,0
2024-05-09T02:30:57.000Z,0
2024-05-09T02:31:37.000Z,0
2024-05-09T02:32:35.568Z,0
2024-05-09T02:34:09.751Z,0
2024-05-09T02:36:00.000Z,0
2024-05-09T02:36:41.156Z,0
2024-05-09T02:37:57.338Z,0
2024-05-09T02:39:13.000Z,0
2024-05-09T02:40:29.725Z,0
2024-05-09T02:41:45.927Z,0
2024-05-09T02:43:02.129Z,0
2024-05-09T02:44:18.318Z,0
2024-05-09T02:45:16.515Z,0
2024-05-09T02:46:50.000Z,0
2024-05-09T02:48:06.883Z,0
2024-05-09T02:49:23.083Z,0
2024-05-09T02:50:39.000Z,0
2024-05-09T02:51:55.000Z,0
2024-05-09T02:53:11.655Z,0
2024-05-09T02:54:26.000Z,0
2024-05-09T02:55:43.000Z,0
2024-05-09T02:56:59.249Z,0
2024-05-09T02:58:15.447Z,0
2024-05-09T02:59:31.641Z,0
2024-05-09T03:00:47.000Z,0
2024-05-09T03:02:04.000Z,0
2024-05-09T03:03:02.231Z,0
2024-05-09T03:04:36.412Z,0
2024-05-09T03:05:34.619Z,0
2024-05-09T03:07:08.797Z,0
2024-05-09T03:08:25.000Z,0
2024-05-09T03:09:41.000Z,0
2024-05-09T03:10:39.396Z,0
2024-05-09T03:12:13.000Z,0
2024-05-09T03:13:11.785Z,0
2024-05-09T03:14:44.985Z,0
2024-05-09T03:16:01.182Z,5
2024-05-09T03:17:17.000Z,5
2024-05-09T03:18:15.581Z,5
2024-05-09T03:19:49.000Z,5
2024-05-09T03:21:05.000Z,5
2024-05-09T03:22:22.000Z,5
2024-05-09T03:23:38.347Z,5
2024-05-09T03:24:54.000Z,11
2024-05-09T03:26:10.737Z,11
2024-05-09T03:27:26.935Z,11
2024-05-09T03:28:43.125Z,11
2024-05-09T03:29:59.000Z,16
2024-05-09T03:31:15.508Z,16
2024-05-09T03:32:30.000Z,16
2024-05-09T03:33:46.932Z,16
2024-05-09T03:35:03.000Z,22
2024-05-09T03:36:19.000Z,22
2024-05-09T03:37:35.000Z,22
2024-05-09T03:38:51.699Z,28
2024-05-09T03:40:07.000Z,28
2024-05-09T03:41:24.093Z,28
2024-05-09T03:42:40.000Z,33
2024-05-09T03:43:38.493Z,33
2024-05-09T03:45:12.000Z,39
2024-05-09T03:46:28.000Z,39
2024-05-09T03:47:45.000Z,39
2024-05-09T03:48:43.273Z,45
2024-05-09T03:50:17.458Z,45
2024-05-09T03:51:14.680Z,50
2024-05-09T03:52:48.000Z,50
2024-05-09T03:54:05.060Z,56
2024-05-09T03:55:21.000Z,61
2024-05-09T03:56:37.444Z,67
2024-05-09T03:57:53.645Z,73
2024-05-09T03:59:09.000Z,67
2024-05-09T04:00:26.030Z,67
2024-05-09T04:02:18.000Z,67
2024-05-09T04:02:58.000Z,67
2024-05-09T04:04:14.614Z,73
2024-05-09T04:05:30.816Z,73
2024-05-09T04:06:47.000Z,78
2024-05-09T04:08:02.000Z,78
2024-05-09T04:09:00.427Z,78
2024-05-09T04:10:34.000Z,84
2024-05-09T04:11:50.000Z,84
2024-05-09T04:13:06.996Z,84
2024-05-09T04:14:23.000Z,84
2024-05-09T04:15:39.390Z,90
2024-05-09T04:16:55.000Z,90
2024-05-09T04:18:11.794Z,90
2024-05-09T04:19:27.989Z,95
2024-05-09T04:20:44.167Z,95
2024-05-09T04:21:42.379Z,101
2024-05-09T04:23:16.000Z,101
2024-05-09T04:24:32.000Z,101
2024-05-09T04:25:48.000Z,106
2024-05-09T04:26:47.159Z,106
2024-05-09T04:28:21.000Z,112
2024-05-09T04:29:36.543Z,112
2024-05-09T04:30:52.743Z,112
2024-05-09T04:31:50.953Z,118
2024-05-09T04:33:25.000Z,118
2024-05-09T04:34:23.343Z,118
2024-05-09T04:35:57.526Z,123
2024-05-09T04:37:13.000Z,123
2024-05-09T04:38:29.000Z,123
2024-05-09T04:39:46.105Z,129
2024-05-09T04:41:02.000Z,129
2024-05-09T04:42:00.514Z,129
2024-05-09T04:43:34.000Z,129
2024-05-09T04:44:32.904Z,135
2024-05-09T04:46:06.000Z,135
2024-05-09T04:47:04.307Z,135
2024-05-09T04:48:38.000Z,135
2024-05-09T04:49:54.000Z,140
2024-05-09T04:51:10.887Z,140
2024-05-09T04:52:27.000Z,140
2024-05-09T04:53:43.000Z,140
2024-05-09T04:54:59.462Z,146
2024-05-09T04:56:15.673Z,146
2024-05-09T04:57:31.857Z,146
2024-05-09T04:58:48.000Z,146
2024-05-09T05:00:04.246Z,151
2024-05-09T05:01:20.000Z,151
2024-05-09T05:02:36.000Z,151
2024-05-09T05:03:52.000Z,151
2024-05-09T05:05:09.023Z,157
2024-05-09T05:06:24.000Z,157
2024-05-09T05:07:22.442Z,157
2024-05-09T05:08:56.000Z,157
2024-05-09T05:10:12.815Z,151
2024-05-09T05:11:29.000Z,146
2024-05-09T05:12:27.223Z,140
2024-05-09T05:14:01.000Z,135
2024-05-09T05:15:17.000Z,140
2024-05-09T05:16:33.000Z,146
2024-05-09T05:17:50.000Z,157
2024-05-09T05:19:06.200Z,151
2024-05-09T05:20:58.000Z,163
2024-05-09T05:21:38.000Z,168
2024-05-09T05:22:36.785Z,168
2024-05-09T05:24:10.972Z,168
2024-05-09T05:25:27.000Z,163
2024-05-09T05:26:42.000Z,163
2024-05-09T05:27:58.000Z,168
2024-05-09T05:29:14.000Z,174
2024-05-09T05:30:30.000Z,174
2024-05-09T05:31:47.000Z,180
2024-05-09T05:33:03.000Z,180
2024-05-09T05:34:19.000Z,180
2024-05-09T05:35:35.000Z,180
2024-05-09T05:36:51.000Z,185
2024-05-09T05:37:50.146Z,185
2024-05-09T05:39:24.000Z,185
2024-05-09T05:40:40.000Z,185
2024-05-09T05:41:56.000Z,191
2024-05-09T05:43:12.000Z,185
2024-05-09T05:44:29.000Z,185
2024-05-09T05:45:45.318Z,185
2024-05-09T05:47:01.497Z,185
2024-05-09T05:47:59.710Z,185
2024-05-09T05:49:32.000Z,185
2024-05-09T05:50:49.000Z,168
2024-05-09T05:52:05.307Z,168
2024-05-09T05:53:21.000Z,185
2024-05-09T05:55:13.000Z,191
2024-05-09T05:55:35.898Z,191
2024-05-09T05:57:10.000Z,191
2024-05-09T05:58:26.000Z,191
2024-05-09T05:59:41.502Z,180
2024-05-09T06:00:57.707Z,191
2024-05-09T06:02:13.000Z,196
2024-05-09T06:03:12.095Z,196
2024-05-09T06:04:46.000Z,196
2024-05-09T06:06:02.000Z,196
2024-05-09T06:07:18.000Z,196
2024-05-09T06:08:16.877Z,196
2024-05-09T06:09:51.000Z,196
2024-05-09T06:11:07.268Z,208
2024-05-09T06:12:23.000Z,213
2024-05-09T06:13:39.648Z,213
2024-05-09T06:14:55.000Z,213
2024-05-09T06:15:54.050Z,213
2024-05-09T06:17:27.000Z,213
2024-05-09T06:18:43.000Z,213
2024-05-09T06:19:59.000Z,213
2024-05-09T06:21:15.000Z,213
2024-05-09T06:23:07.000Z,213
2024-05-09T06:23:48.232Z,213
2024-05-09T06:25:04.422Z,213
2024-05-09T06:26:20.619Z,213
2024-05-09T06:28:12.000Z,213
2024-05-09T06:28:35.022Z,219
2024-05-09T06:30:09.200Z,213
2024-05-09T06:31:25.000Z,213
2024-05-09T06:32:41.000Z,213
2024-05-09T06:33:39.803Z,213
2024-05-09T06:35:14.000Z,219
2024-05-09T06:36:30.364Z,225
2024-05-09T06:37:45.580Z,225
2024-05-09T06:38:43.779Z,230
2024-05-09T06:40:17.000Z,225
2024-05-09T06:41:34.000Z,225
2024-05-09T06:42:50.364Z,230
2024-05-09T06:44:06.000Z,230
2024-05-09T06:45:22.748Z,230
2024-05-09T06:46:20.948Z,230
2024-05-09T06:47:55.136Z,230
2024-05-09T06:49:11.000Z,236
2024-05-09T06:50:27.000Z,236
2024-05-09T06:51:25.728Z,236
2024-05-09T06:52:59.913Z,236
2024-05-09T06:54:15.130Z,236
2024-05-09T06:55:31.000Z,236
2024-05-09T06:56:47.524Z,236
2024-05-09T06:58:03.000Z,236
2024-05-09T06:59:19.000Z,236
2024-05-09T07:00:36.107Z,241
2024-05-09T07:01:52.294Z,241
2024-05-09T07:03:08.486Z,241
2024-05-09T07:04:24.000Z,241
2024-05-09T07:05:40.000Z,241
2024-05-09T07:06:39.083Z,241
2024-05-09T07:08:13.267Z,241
2024-05-09T07:09:29.000Z,236
2024-05-09T07:10:45.000Z,230
2024-05-09T07:12:01.000Z,236
2024-05-09T07:13:18.000Z,236
2024-05-09T07:14:34.000Z,241
2024-05-09T07:15:49.454Z,247
2024-05-09T07:17:05.644Z,241
2024-05-09T07:18:21.000Z,247
2024-05-09T07:19:20.044Z,241
2024-05-09T07:20:54.000Z,241
2024-05-09T07:22:10.000Z,241
2024-05-09T07:23:26.000Z,247
2024-05-09T07:24:42.000Z,247
2024-05-09T07:25:59.000Z,247
2024-05-09T07:27:15.199Z,247
2024-05-09T07:28:31.000Z,247
2024-05-09T07:29:47.000Z,247
2024-05-09T07:31:03.793Z,247
2024-05-09T07:32:01.994Z,247
2024-05-09T07:33:35.187Z,247
2024-05-09T07:34:51.000Z,247
2024-05-09T07:36:07.000Z,241
2024-05-09T07:37:23.777Z,247
2024-05-09T07:38:39.979Z,247
2024-05-09T07:39:56.177Z,247
2024-05-09T07:41:12.000Z,247
2024-05-09T07:42:28.560Z,253
2024-05-09T07:43:44.000Z,253
2024-05-09T07:44:42.957Z,253
2024-05-09T07:46:17.136Z,253
2024-05-09T07:47:33.347Z,253
2024-05-09T07:48:49.000Z,247
2024-05-09T07:50:05.732Z,253
2024-05-09T07:51:21.932Z,253
2024-05-09T07:52:38.122Z,253
2024-05-09T07:53:53.322Z,253
2024-05-09T07:55:09.524Z,247
2024-05-09T07:56:25.000Z,241
2024-05-09T07:57:23.921Z,253
2024-05-09T07:58:58.000Z,253
2024-05-09T08:00:14.000Z,253
2024-05-09T08:01:30.000Z,253
2024-05-09T08:02:46.000Z,253
2024-05-09T08:04:02.000Z,258
2024-05-09T08:05:19.000Z,253
2024-05-09T08:06:35.000Z,253
2024-05-09T08:07:51.000Z,253
2024-05-09T08:09:07.000Z,258
2024-05-09T08:10:04.887Z,253
2024-05-09T08:11:39.000Z,253
2024-05-09T08:12:55.000Z,258
2024-05-09T08:14:11.000Z,253
2024-05-09T08:15:27.668Z,253
2024-05-09T08:16:43.000Z,258
2024-05-09T08:18:00.057Z,253
2024-05-09T08:19:16.000Z,253
2024-05-09T08:20:32.000Z,253
2024-05-09T08:21:48.000Z,253
2024-05-09T08:23:04.823Z,253
2024-05-09T08:24:21.000Z,253
2024-05-09T08:25:37.000Z,253
2024-05-09T08:26:53.421Z,253
2024-05-09T08:28:09.000Z,253
2024-05-09T08:29:25.000Z,253
2024-05-09T08:30:42.011Z,253
2024-05-09T08:31:58.197Z,253
2024-05-09T08:32:55.415Z,253
2024-05-09T08:34:29.611Z,253
2024-05-09T08:35:27.806Z,253
2024-05-09T08:37:02.000Z,253
2024-05-09T08:38:18.000Z,253
2024-05-09T08:39:34.387Z,270
2024-05-09T08:40:32.587Z,253
2024-05-09T08:42:06.777Z,253
2024-05-09T08:43:22.967Z,253
2024-05-09T08:44:39.000Z,253
2024-05-09T08:45:55.000Z,258
2024-05-09T08:47:47.000Z,258
2024-05-09T08:48:27.745Z,253
2024-05-09T08:49:42.000Z,253
2024-05-09T08:50:59.000Z,315
2024-05-09T08:52:15.000Z,258
2024-05-09T08:53:31.000Z,258
2024-05-09T08:54:47.000Z,258
2024-05-09T08:56:03.932Z,264
2024-05-09T08:57:20.131Z,286
2024-05-09T08:58:36.327Z,258
2024-05-09T08:59:52.535Z,258
2024-05-09T09:00:50.731Z,264
2024-05-09T09:02:24.000Z,258
2024-05-09T09:03:41.000Z,258
2024-05-09T09:05:33.000Z,258
2024-05-09T09:06:13.000Z,258
2024-05-09T09:07:29.000Z,258
2024-05-09T09:08:45.889Z,258
2024-05-09T09:10:02.000Z,258
2024-05-09T09:10:59.309Z,258
2024-05-09T09:12:33.000Z,258
2024-05-09T09:13:49.700Z,258
2024-05-09T09:15:05.000Z,258
2024-05-09T09:16:22.000Z,258
2024-05-09T09:17:38.275Z,258
2024-05-09T09:18:54.000Z,264
2024-05-09T09:20:10.000Z,275
2024-05-09T09:21:26.000Z,264
2024-05-09T09:22:43.000Z,270
2024-05-09T09:23:59.000Z,270
2024-05-09T09:25:15.462Z,303
2024-05-09T09:26:31.653Z,292
2024-05-09T09:27:47.000Z,275
2024-05-09T09:29:04.000Z,275
2024-05-09T09:30:20.000Z,281
2024-05-09T09:31:36.439Z,275
2024-05-09T09:32:52.000Z,275
2024-05-09T09:34:08.000Z,275
2024-05-09T09:36:00.000Z,281
2024-05-09T09:36:41.000Z,281
2024-05-09T09:37:57.000Z,281
2024-05-09T09:39:13.594Z,298
2024-05-09T09:40:28.818Z,292
2024-05-09T09:41:45.000Z,275
2024-05-09T09:43:01.000Z,275
2024-05-09T09:44:17.000Z,281
2024-05-09T09:45:33.605Z,281
2024-05-09T09:46:49.000Z,281
2024-05-09T09:48:06.000Z,286
2024-05-09T09:49:22.000Z,275
2024-05-09T09:50:38.387Z,275
2024-05-09T09:51:36.582Z,275
2024-05-09T09:53:10.778Z,275
2024-05-09T09:54:26.000Z,281
2024-05-09T09:55:43.162Z,281
2024-05-09T09:56:58.000Z,292
2024-05-09T09:58:14.000Z,286
2024-05-09T09:59:30.771Z,281
2024-05-09T10:00:46.967Z,275
2024-05-09T10:01:45.161Z,281
2024-05-09T10:03:19.357Z,315
2024-05-09T10:04:35.000Z,275
2024-05-09T10:05:51.732Z,281
2024-05-09T10:07:07.000Z,281
2024-05-09T10:08:24.000Z,298
2024-05-09T10:09:40.000Z,281
2024-05-09T10:10:56.000Z,281
2024-05-09T10:12:12.000Z,281
2024-05-09T10:13:28.000Z,298
2024-05-09T10:14:45.000Z,281
2024-05-09T10:16:01.000Z,281
2024-05-09T10:16:59.506Z,286
2024-05-09T10:18:32.000Z,286
2024-05-09T10:19:48.000Z,286
2024-05-09T10:21:05.000Z,286
2024-05-09T10:22:21.000Z,286
2024-05-09T10:23:37.000Z,286
2024-05-09T10:24:53.684Z,286
2024-05-09T10:26:09.891Z,286
2024-05-09T10:27:26.000Z,292
2024-05-09T10:28:42.286Z,309
2024-05-09T10:29:58.486Z,292
2024-05-09T10:31:14.000Z,286
2024-05-09T10:32:30.876Z,292
2024-05-09T10:33:47.069Z,286
2024-05-09T10:35:03.267Z,286
2024-05-09T10:36:19.456Z,292
2024-05-09T10:37:35.655Z,292
2024-05-09T10:38:51.000Z,298
2024-05-09T10:39:50.051Z,298
2024-05-09T10:41:24.243Z,303
2024-05-09T10:42:22.441Z,298
2024-05-09T10:43:56.000Z,292
2024-05-09T10:45:12.000Z,303
2024-05-09T10:46:29.000Z,303
2024-05-09T10:47:45.218Z,315
2024-05-09T10:49:00.000Z,303
2024-05-09T10:50:16.000Z,298
2024-05-09T10:51:32.824Z,298
2024-05-09T10:52:49.022Z,309
2024-05-09T10:54:05.000Z,303
2024-05-09T10:55:21.403Z,309
2024-05-09T10:56:37.592Z,309
2024-05-09T10:57:53.000Z,303
2024-05-09T10:59:09.981Z,309
2024-05-09T11:00:26.192Z,309
2024-05-09T11:01:42.000Z,315
2024-05-09T11:02:58.000Z,315
2024-05-09T11:04:14.000Z,315
2024-05-09T11:05:29.986Z,315
2024-05-09T11:06:46.000Z,315
2024-05-09T11:08:02.000Z,320
2024-05-09T11:09:18.000Z,331
2024-05-09T11:10:34.769Z,320
2024-05-09T11:11:50.966Z,320
2024-05-09T11:13:07.160Z,343
2024-05-09T11:14:23.341Z,326
2024-05-09T11:15:39.550Z,326
2024-05-09T11:16:55.000Z,337
2024-05-09T11:18:11.000Z,326
2024-05-09T11:19:28.121Z,331
2024-05-09T11:20:26.332Z,348
2024-05-09T11:23:16.000Z,331
2024-05-09T11:24:32.000Z,354
2024-05-09T11:25:49.000Z,343
2024-05-09T11:27:05.000Z,337
2024-05-09T11:28:21.493Z,343
2024-05-09T11:29:37.000Z,365
2024-05-09T11:30:53.891Z,348
2024-05-09T11:32:10.000Z,354
2024-05-09T11:33:08.286Z,354
2024-05-09T11:34:42.472Z,360
2024-05-09T11:35:58.000Z,365
2024-05-09T11:37:14.862Z,388
2024-05-09T11:38:31.061Z,371
2024-05-09T11:39:47.262Z,371
2024-05-09T11:41:03.000Z,376
2024-05-09T11:42:19.647Z,393
2024-05-09T11:43:35.000Z,388
2024-05-09T11:44:51.044Z,393
2024-05-09T11:46:07.000Z,410
2024-05-09T11:47:23.000Z,416
2024-05-09T11:48:39.000Z,427
2024-05-09T11:49:55.838Z,438
2024-05-09T11:51:12.000Z,450
2024-05-09T11:52:28.000Z,466
2024-05-09T11:54:20.000Z,500
2024-05-09T11:55:00.000Z,556
2024-05-09T11:55:58.820Z,585
2024-05-09T11:57:33.000Z,601
2024-05-09T11:58:49.193Z,601
2024-05-09T12:00:05.404Z,596
2024-05-09T12:01:20.000Z,596
2024-05-09T12:02:36.000Z,596
2024-05-09T12:03:53.002Z,562
2024-05-09T12:05:09.189Z,528
2024-05-09T12:06:25.402Z,461
2024-05-09T12:07:41.000Z,427
2024-05-09T12:08:57.000Z,410
2024-05-09T12:10:13.989Z,405
2024-05-09T12:11:30.169Z,405
2024-05-09T12:12:46.371Z,416
2024-05-09T12:14:02.000Z,416
2024-05-09T12:15:18.752Z,405
2024-05-09T12:16:34.961Z,399
2024-05-09T12:17:51.000Z,405
2024-05-09T12:19:07.000Z,399
2024-05-09T12:20:23.000Z,405
2024-05-09T12:21:39.000Z,399
2024-05-09T12:22:55.930Z,399
2024-05-09T12:23:54.139Z,399
2024-05-09T12:25:27.349Z,399
2024-05-09T12:26:43.000Z,399
2024-05-09T12:27:59.000Z,410
2024-05-09T12:28:57.936Z,399
2024-05-09T12:30:32.131Z,405
2024-05-09T12:31:48.000Z,410
2024-05-09T12:33:04.000Z,410
2024-05-09T12:34:20.716Z,405
2024-05-09T12:35:36.000Z,371
2024-05-09T12:36:35.106Z,309
2024-05-09T12:38:45.000Z,286
2024-05-09T12:39:25.000Z,286
2024-05-09T12:40:41.686Z,292
2024-05-09T12:41:57.000Z,286
2024-05-09T12:43:14.000Z,286
2024-05-09T12:44:29.000Z,275
2024-05-09T12:45:45.457Z,286
2024-05-09T12:47:01.000Z,286
2024-05-09T12:48:17.000Z,281
2024-05-09T12:49:16.053Z,281
2024-05-09T12:50:50.234Z,281
2024-05-09T12:52:06.000Z,281
2024-05-09T12:53:22.618Z,292
2024-05-09T12:54:38.000Z,281
2024-05-09T12:55:55.000Z,281
2024-05-09T12:57:11.208Z,292
2024-05-09T12:58:27.397Z,281
2024-05-09T12:59:43.582Z,281
2024-05-09T13:00:58.796Z,281
2024-05-09T13:02:15.000Z,281
2024-05-09T13:03:31.000Z,292
2024-05-09T13:04:47.000Z,281
2024-05-09T13:06:03.565Z,281
2024-05-09T13:07:19.768Z,281
2024-05-09T13:08:35.964Z,281
2024-05-09T13:09:52.155Z,286
2024-05-09T13:11:08.357Z,286
2024-05-09T13:12:24.542Z,286
2024-05-09T13:13:40.731Z,286
2024-05-09T13:14:56.923Z,286
2024-05-09T13:16:13.000Z,286
2024-05-09T13:17:29.000Z,292
2024-05-09T13:18:45.000Z,320
2024-05-09T13:20:01.698Z,427
2024-05-09T13:21:53.000Z,472
2024-05-09T13:22:33.000Z,506
2024-05-09T13:23:49.303Z,551
2024-05-09T13:25:05.000Z,607
2024-05-09T13:26:21.690Z,714
2024-05-09T13:27:37.883Z,950
2024-05-09T13:28:54.068Z,1496
2024-05-09T13:30:10.000Z,1693
2024-05-09T13:31:26.000Z,1423
2024-05-09T13:32:24.657Z,1203
2024-05-09T13:33:58.850Z,1119
2024-05-09T13:34:57.043Z,1023
2024-05-09T13:36:31.232Z,1023
2024-05-09T13:37:29.430Z,1091
2024-05-09T13:39:02.625Z,1006
2024-05-09T13:40:00.832Z,877
2024-05-09T13:41:35.000Z,832
2024-05-09T13:42:51.000Z,804
2024-05-09T13:44:07.000Z,765
2024-05-09T13:45:23.605Z,759
2024-05-09T13:46:39.000Z,748
2024-05-09T13:47:56.000Z,736
2024-05-09T13:49:12.000Z,686
2024-05-09T13:50:28.361Z,680
2024-05-09T13:51:44.572Z,686
2024-05-09T13:52:42.765Z,697
2024-05-09T13:54:16.000Z,680
2024-05-09T13:55:33.000Z,573
2024-05-09T13:56:49.334Z,427
2024-05-09T13:58:05.000Z,388
2024-05-09T13:59:03.732Z,376
2024-05-09T14:00:36.000Z,371
2024-05-09T14:01:53.135Z,365
2024-05-09T14:03:09.000Z,371
2024-05-09T14:04:25.000Z,360
2024-05-09T14:05:41.000Z,360
2024-05-09T14:06:57.000Z,365
2024-05-09T14:08:14.000Z,365
2024-05-09T14:09:30.000Z,365
2024-05-09T14:10:46.000Z,365
2024-05-09T14:12:02.000Z,376
2024-05-09T14:13:00.877Z,371
2024-05-09T14:14:35.000Z,365
2024-05-09T14:15:51.000Z,376
2024-05-09T14:17:07.443Z,376
2024-05-09T14:18:05.651Z,376
2024-05-09T14:19:39.000Z,382
2024-05-09T14:20:56.000Z,388
2024-05-09T14:22:12.228Z,388
2024-05-09T14:23:28.412Z,388
2024-05-09T14:24:44.000Z,399
2024-05-09T14:26:00.805Z,410
2024-05-09T14:27:17.000Z,410
2024-05-09T14:28:33.185Z,416
2024-05-09T14:29:30.406Z,416
2024-05-09T14:30:46.599Z,421
2024-05-09T14:32:20.773Z,416
2024-05-09T14:33:36.000Z,410
2024-05-09T14:34:53.171Z,410
2024-05-09T14:35:51.372Z,427
2024-05-09T14:37:25.550Z,438
2024-05-09T14:38:22.782Z,472
2024-05-09T14:39:56.000Z,461
2024-05-09T14:40:55.169Z,466
2024-05-09T14:42:29.000Z,472
2024-05-09T14:43:45.537Z,466
2024-05-09T14:45:01.000Z,478
2024-05-09T14:46:17.000Z,483
2024-05-09T14:47:34.134Z,472
2024-05-09T14:48:50.331Z,478
2024-05-09T14:50:06.519Z,489
2024-05-09T14:51:22.717Z,500
2024-05-09T14:52:38.905Z,506
2024-05-09T14:53:55.097Z,523
2024-05-09T14:55:11.288Z,523
2024-05-09T14:56:26.000Z,534
2024-05-09T14:57:42.000Z,534
2024-05-09T14:58:58.000Z,517
2024-05-09T15:00:50.000Z,511
2024-05-09T15:01:13.279Z,517
2024-05-09T15:02:47.000Z,517
2024-05-09T15:04:03.000Z,500
2024-05-09T15:05:19.000Z,534
2024-05-09T15:06:36.053Z,517
2024-05-09T15:07:52.228Z,556
2024-05-09T15:09:08.000Z,540
2024-05-09T15:10:24.000Z,556
2024-05-09T15:11:40.000Z,556
2024-05-09T15:12:57.000Z,562
2024-05-09T15:14:13.000Z,579
2024-05-09T15:15:29.388Z,551
2024-05-09T15:16:44.000Z,540
2024-05-09T15:18:00.000Z,573
2024-05-09T15:19:17.000Z,556
2024-05-09T15:20:33.000Z,545
2024-05-09T15:21:49.384Z,540
2024-05-09T15:23:05.577Z,511
2024-05-09T15:24:21.000Z,528
2024-05-09T15:25:37.959Z,545
2024-05-09T15:26:54.161Z,528
2024-05-09T15:28:10.000Z,534
2024-05-09T15:29:26.542Z,523
2024-05-09T15:30:42.000Z,540
2024-05-09T15:31:40.936Z,551
2024-05-09T15:33:15.000Z,545
2024-05-09T15:34:12.335Z,528
2024-05-09T15:35:46.000Z,511
2024-05-09T15:37:02.000Z,562
2024-05-09T15:38:18.000Z,540
2024-05-09T15:39:17.110Z,534
2024-05-09T15:40:51.000Z,540
2024-05-09T15:42:07.000Z,528
2024-05-09T15:43:23.000Z,523
2024-05-09T15:44:39.869Z,545
2024-05-09T15:45:56.000Z,562
2024-05-09T15:47:12.000Z,556
2024-05-09T15:48:28.000Z,556
2024-05-09T15:49:44.000Z,573
2024-05-09T15:51:00.000Z,585
2024-05-09T15:52:17.000Z,573
2024-05-09T15:53:33.219Z,579
2024-05-09T15:54:48.000Z,534
2024-05-09T15:56:04.000Z,556
2024-05-09T15:57:20.818Z,545
2024-05-09T15:58:37.000Z,506
2024-05-09T15:59:35.216Z,506
2024-05-09T16:01:09.000Z,517
2024-05-09T16:02:25.000Z,511
2024-05-09T16:03:41.778Z,472
2024-05-09T16:04:58.000Z,472
2024-05-09T16:06:14.184Z,489
2024-05-09T16:07:30.371Z,483
2024-05-09T16:08:46.557Z,483
2024-05-09T16:10:38.000Z,483
2024-05-09T16:11:18.000Z,466
2024-05-09T16:12:35.137Z,478
2024-05-09T16:13:51.000Z,506
2024-05-09T16:15:07.539Z,489
2024-05-09T16:16:23.000Z,478
2024-05-09T16:17:39.000Z,495
2024-05-09T16:18:56.103Z,495
2024-05-09T16:20:12.300Z,478
2024-05-09T16:21:28.000Z,489
2024-05-09T16:22:44.688Z,466
2024-05-09T16:24:00.000Z,461
2024-05-09T16:25:17.000Z,438
2024-05-09T16:26:33.262Z,416
2024-05-09T16:27:48.490Z,421
2024-05-09T16:29:04.000Z,421
2024-05-09T16:30:20.870Z,416
2024-05-09T16:31:37.053Z,416
2024-05-09T16:32:53.261Z,399
2024-05-09T16:34:09.000Z,382
2024-05-09T16:35:25.000Z,371
2024-05-09T16:36:41.000Z,365
2024-05-09T16:37:58.030Z,354
2024-05-09T16:39:14.215Z,354
2024-05-09T16:40:30.000Z,360
2024-05-09T16:41:46.000Z,343
2024-05-09T16:43:02.000Z,337
2024-05-09T16:44:19.000Z,343
2024-05-09T16:45:35.189Z,343
2024-05-09T16:46:51.371Z,348
2024-05-09T16:48:07.000Z,365
2024-05-09T16:49:23.000Z,376
2024-05-09T16:50:21.968Z,421
2024-05-09T16:51:56.000Z,523
2024-05-09T16:53:12.000Z,658
2024-05-09T16:54:28.538Z,652
2024-05-09T16:55:43.000Z,607
2024-05-09T16:56:59.000Z,607
2024-05-09T16:58:16.136Z,641
2024-05-09T16:59:32.335Z,680
2024-05-09T17:00:48.000Z,635
2024-05-09T17:02:40.000Z,540
2024-05-09T17:03:02.915Z,517
2024-05-09T17:04:37.101Z,540
2024-05-09T17:05:53.000Z,573
2024-05-09T17:07:09.495Z,556
2024-05-09T17:08:25.000Z,495
2024-05-09T17:09:41.000Z,461
2024-05-09T17:10:58.000Z,421
2024-05-09T17:12:14.000Z,421
2024-05-09T17:13:30.447Z,461
2024-05-09T17:14:46.000Z,433
2024-05-09T17:16:02.000Z,410
2024-05-09T17:17:19.000Z,421
2024-05-09T17:18:35.000Z,427
2024-05-09T17:19:51.000Z,410
2024-05-09T17:21:07.000Z,388
2024-05-09T17:22:23.931Z,365
2024-05-09T17:23:40.000Z,343
2024-05-09T17:24:56.000Z,309
2024-05-09T17:26:12.000Z,292
2024-05-09T17:27:28.000Z,292
2024-05-09T17:28:44.894Z,292
2024-05-09T17:30:01.000Z,298
2024-05-09T17:31:17.000Z,303
2024-05-09T17:32:33.471Z,270
2024-05-09T17:33:48.684Z,270
2024-05-09T17:35:04.000Z,286
2024-05-09T17:36:21.058Z,298
2024-05-09T17:37:37.000Z,303
2024-05-09T17:38:53.000Z,303
2024-05-09T17:40:09.000Z,320
2024-05-09T17:41:25.000Z,315
2024-05-09T17:42:42.000Z,303
2024-05-09T17:43:58.000Z,258
2024-05-09T17:45:14.000Z,208